createdAt,value
2019-02-21T00:01:07.011Z,18.87
2019-02-21T00:03:38.492Z,21.30
2019-02-21T00:06:10.146Z,22.20
2019-02-21T00:08:41.694Z,19.33
2019-02-21T00:11:13.673Z,23.47
2019-02-21T00:13:45.775Z,21.03
2019-02-21T00:16:17.898Z,23.73
2019-02-21T00:18:50.559Z,27.23
2019-02-21T00:21:22.535Z,27.33
2019-02-21T00:23:54.540Z,24.00
2019-02-21T00:26:26.508Z,17.50
2019-02-21T00:28:57.902Z,23.93
2019-02-21T00:31:29.592Z,21.70
2019-02-21T00:34:01.594Z,19.90
2019-02-21T00:36:33.678Z,21.20
2019-02-21T00:39:07.101Z,20.33
2019-02-21T00:41:40.497Z,19.13
2019-02-21T00:44:12.643Z,22.77
2019-02-21T00:46:44.824Z,31.13
2019-02-21T00:49:16.760Z,17.47
2019-02-21T00:51:48.741Z,21.67
2019-02-21T00:54:20.943Z,22.77
2019-02-21T00:56:53.074Z,19.70
2019-02-21T00:59:24.678Z,19.00
2019-02-21T01:01:56.996Z,18.03
2019-02-21T01:04:29.133Z,20.57
2019-02-21T01:07:01.084Z,20.67
2019-02-21T01:09:32.959Z,19.60
2019-02-21T01:12:05.621Z,21.97
2019-02-21T01:14:38.422Z,18.00
2019-02-21T01:17:11.108Z,23.90
2019-02-21T01:19:43.025Z,27.13
2019-02-21T01:22:14.781Z,20.87
2019-02-21T01:24:46.117Z,24.83
2019-02-21T01:27:17.796Z,24.97
2019-02-21T01:29:49.761Z,23.60
2019-02-21T01:32:22.557Z,24.47
2019-02-21T01:34:53.957Z,23.67
2019-02-21T01:37:25.277Z,28.40
2019-02-21T01:39:56.859Z,23.60
2019-02-21T01:42:28.213Z,28.20
2019-02-21T01:44:59.721Z,27.17
2019-02-21T01:47:31.005Z,22.47
2019-02-21T01:50:02.711Z,26.43
2019-02-21T01:52:39.472Z,29.47
2019-02-21T01:55:11.581Z,28.53
2019-02-21T01:57:43.233Z,29.70
2019-02-21T02:00:14.778Z,23.90
2019-02-21T02:02:47.406Z,27.60
2019-02-21T02:05:19.146Z,31.83
2019-02-21T02:07:51.048Z,27.23
2019-02-21T02:10:22.676Z,30.73
2019-02-21T02:12:54.393Z,32.80
2019-02-21T02:15:25.808Z,30.27
2019-02-21T02:17:57.258Z,31.63
2019-02-21T02:20:28.781Z,30.13
2019-02-21T02:23:00.673Z,32.27
2019-02-21T02:25:31.965Z,29.43
2019-02-21T02:28:03.531Z,32.37
2019-02-21T02:30:35.293Z,30.07
2019-02-21T02:33:07.020Z,30.67
2019-02-21T02:35:38.905Z,35.90
2019-02-21T02:38:11.008Z,25.47
2019-02-21T02:40:43.704Z,33.60
2019-02-21T02:43:15.258Z,27.10
2019-02-21T02:45:48.216Z,28.10
2019-02-21T02:48:19.924Z,25.63
2019-02-21T02:50:51.840Z,29.80
2019-02-21T02:53:23.570Z,28.90
2019-02-21T02:55:54.984Z,26.77
2019-02-21T02:58:26.413Z,27.97
2019-02-21T03:00:58.063Z,28.97
2019-02-21T03:03:29.539Z,27.27
2019-02-21T03:06:01.406Z,33.47
2019-02-21T03:08:34.041Z,35.30
2019-02-21T03:11:05.556Z,26.70
2019-02-21T03:13:37.137Z,31.90
2019-02-21T03:16:08.667Z,26.63
2019-02-21T03:18:40.469Z,30.63
2019-02-21T03:21:12.180Z,28.73
2019-02-21T03:23:44.134Z,30.87
2019-02-21T03:26:15.543Z,31.03
2019-02-21T03:28:47.240Z,33.77
2019-02-21T03:31:18.657Z,35.17
2019-02-21T03:33:50.385Z,31.47
2019-02-21T03:36:22.464Z,27.67
2019-02-21T03:38:54.112Z,33.43
2019-02-21T03:41:26.733Z,33.43
2019-02-21T03:43:58.018Z,33.43
2019-02-21T03:46:29.678Z,36.97
2019-02-21T03:49:01.355Z,39.33
2019-02-21T03:51:32.959Z,29.83
2019-02-21T03:54:04.370Z,31.00
2019-02-21T03:56:35.926Z,37.90
2019-02-21T03:59:07.438Z,29.40
2019-02-21T04:01:39.452Z,36.77
2019-02-21T04:04:11.068Z,29.73
2019-02-21T04:06:42.424Z,31.33
2019-02-21T04:09:13.952Z,30.70
2019-02-21T04:11:45.807Z,31.00
2019-02-21T04:14:17.543Z,28.03
2019-02-21T04:16:49.248Z,35.57
2019-02-21T04:19:20.950Z,39.13
2019-02-21T04:21:53.088Z,35.23
2019-02-21T04:24:24.903Z,29.17
2019-02-21T04:26:56.331Z,35.50
2019-02-21T04:29:27.891Z,32.33
2019-02-21T04:31:59.994Z,34.23
2019-02-21T04:34:31.566Z,34.23
2019-02-21T04:37:03.293Z,29.93
2019-02-21T04:39:34.839Z,29.13
2019-02-21T04:42:06.580Z,31.43
2019-02-21T04:44:38.252Z,31.10
2019-02-21T04:47:09.892Z,35.57
2019-02-21T04:49:41.384Z,38.77
2019-02-21T04:52:13.435Z,36.60
2019-02-21T04:54:44.788Z,34.60
2019-02-21T04:57:16.293Z,31.33
2019-02-21T04:59:47.870Z,34.20
2019-02-21T05:02:28.884Z,30.00
2019-02-21T05:04:58.255Z,35.37
2019-02-21T05:07:29.619Z,35.70
2019-02-21T05:10:01.059Z,41.60
2019-02-21T05:12:32.555Z,39.57
2019-02-21T05:15:03.966Z,41.87
2019-02-21T05:17:35.604Z,40.87
2019-02-21T05:20:07.342Z,38.73
2019-02-21T05:22:39.570Z,35.80
2019-02-21T05:25:11.134Z,37.37
2019-02-21T05:28:04.604Z,36.37
2019-02-21T05:30:36.422Z,34.10
2019-02-21T05:33:29.407Z,31.73
2019-02-21T05:36:15.323Z,33.00
2019-02-21T05:39:14.794Z,43.70
2019-02-21T05:42:04.138Z,37.43
2019-02-21T05:44:46.624Z,44.03
2019-02-21T05:47:49.147Z,47.40
2019-02-21T05:50:26.073Z,35.43
2019-02-21T05:53:40.268Z,32.63
2019-02-21T05:56:33.932Z,34.07
2019-02-21T05:59:27.501Z,41.60
2019-02-21T06:02:08.685Z,38.50
2019-02-21T06:04:53.136Z,40.03
2019-02-21T06:07:42.944Z,36.70
2019-02-21T06:10:33.256Z,40.93
2019-02-21T06:13:35.919Z,43.87
2019-02-21T06:16:26.289Z,47.50
2019-02-21T06:19:14.969Z,41.17
2019-02-21T06:22:10.904Z,46.27
2019-02-21T06:24:57.004Z,41.30
2019-02-21T06:27:54.139Z,40.90
2019-02-21T06:30:33.528Z,43.17
2019-02-21T06:33:05.640Z,46.23
2019-02-21T06:35:37.196Z,51.77
2019-02-21T06:38:08.911Z,45.27
2019-02-21T06:40:40.519Z,57.63
2019-02-21T06:43:12.656Z,51.13
2019-02-21T06:45:43.875Z,59.43
2019-02-21T06:48:15.222Z,40.27
2019-02-21T06:50:47.698Z,20.60
2019-02-21T06:53:19.728Z,18.93
2019-02-21T06:55:51.383Z,11.87
2019-02-21T06:58:22.671Z,13.27
2019-02-21T07:00:54.094Z,15.33
2019-02-21T07:03:25.345Z,15.10
2019-02-21T07:05:57.637Z,9.40
2019-02-21T07:08:29.372Z,11.17
2019-02-21T07:11:06.115Z,11.10
2019-02-21T07:13:33.557Z,9.60
2019-02-21T07:16:04.959Z,9.80
2019-02-21T07:18:36.198Z,9.87
2019-02-21T07:21:07.436Z,10.87
2019-02-21T07:23:43.428Z,13.00
2019-02-21T07:26:14.898Z,10.23
2019-02-21T07:28:46.265Z,12.67
2019-02-21T07:31:28.294Z,8.30
2019-02-21T07:33:51.143Z,16.17
2019-02-21T07:36:22.400Z,10.00
2019-02-21T07:39:08.417Z,4.80
2019-02-21T07:41:26.664Z,7.10
2019-02-21T07:43:57.916Z,12.23
2019-02-21T07:46:32.189Z,10.10
2019-02-21T07:49:02.550Z,12.53
2019-02-21T07:51:35.921Z,12.57
2019-02-21T07:54:06.904Z,13.77
2019-02-21T07:56:41.964Z,6.73
2019-02-21T07:59:12.731Z,6.07
2019-02-21T08:01:43.957Z,9.37
2019-02-21T08:04:15.229Z,8.33
2019-02-21T08:06:46.564Z,13.33
2019-02-21T08:09:18.932Z,9.93
2019-02-21T08:11:50.733Z,10.77
2019-02-21T08:14:22.006Z,10.60
2019-02-21T08:16:56.087Z,9.47
2019-02-21T08:19:26.710Z,12.37
2019-02-21T08:22:00.012Z,7.43
2019-02-21T08:24:31.039Z,9.60
2019-02-21T08:27:02.209Z,9.83
2019-02-21T08:29:33.465Z,13.57
2019-02-21T08:32:04.745Z,4.77
2019-02-21T08:34:42.871Z,8.63
2019-02-21T08:37:14.268Z,6.57
2019-02-21T08:39:45.722Z,6.33
2019-02-21T08:42:17.512Z,10.37
2019-02-21T08:44:49.018Z,7.60
2019-02-21T08:47:21.445Z,10.47
2019-02-21T08:49:52.901Z,7.80
2019-02-21T08:52:24.419Z,9.13
2019-02-21T08:55:00.129Z,12.27
2019-02-21T08:57:28.871Z,7.90
2019-02-21T09:00:00.282Z,12.27
2019-02-21T09:02:32.070Z,7.43
2019-02-21T09:05:03.823Z,14.07
2019-02-21T09:07:37.760Z,6.00
2019-02-21T09:10:10.796Z,7.27
2019-02-21T09:12:47.557Z,8.03
2019-02-21T09:15:16.858Z,8.70
2019-02-21T09:17:48.316Z,10.73
2019-02-21T09:20:19.848Z,7.17
2019-02-21T09:22:52.093Z,6.87
2019-02-21T09:25:23.365Z,9.33
2019-02-21T09:27:54.694Z,13.57
2019-02-21T09:30:25.939Z,5.63
2019-02-21T09:32:58.317Z,8.63
2019-02-21T09:35:29.637Z,14.67
2019-02-21T09:38:00.936Z,7.17
2019-02-21T09:40:32.267Z,9.23
2019-02-21T09:43:09.402Z,7.83
2019-02-21T09:45:42.243Z,10.60
2019-02-21T09:48:13.723Z,11.57
2019-02-21T09:50:45.118Z,9.20
2019-02-21T09:53:16.695Z,18.23
2019-02-21T09:55:50.283Z,12.53
2019-02-21T09:58:20.887Z,16.43
2019-02-21T10:00:52.595Z,15.93
2019-02-21T10:03:24.311Z,11.57
2019-02-21T10:05:55.509Z,7.77
2019-02-21T10:08:26.756Z,14.13
2019-02-21T10:11:00.597Z,13.93
2019-02-21T10:13:31.656Z,14.77
2019-02-21T10:16:04.822Z,12.37
2019-02-21T10:18:36.076Z,10.80
2019-02-21T10:21:07.348Z,8.93
2019-02-21T10:23:38.727Z,14.07
2019-02-21T10:26:10.249Z,16.13
2019-02-21T10:28:41.512Z,11.07
2019-02-21T10:31:12.812Z,12.07
2019-02-21T10:33:49.211Z,10.03
2019-02-21T10:36:20.815Z,11.77
2019-02-21T10:38:52.550Z,8.13
2019-02-21T10:41:23.874Z,10.87
2019-02-21T10:43:55.230Z,8.63
2019-02-21T10:46:26.554Z,9.97
2019-02-21T10:48:57.972Z,12.77
2019-02-21T10:51:29.356Z,12.03
2019-02-21T10:54:00.665Z,9.40
2019-02-21T10:56:32.031Z,15.33
2019-02-21T10:59:03.270Z,13.37
2019-02-21T11:01:34.857Z,12.30
2019-02-21T11:04:06.998Z,13.67
2019-02-21T11:06:38.568Z,7.90
2019-02-21T11:09:14.359Z,6.83
2019-02-21T11:11:45.963Z,8.30
2019-02-21T11:14:17.344Z,6.27
2019-02-21T11:16:48.932Z,9.40
2019-02-21T11:19:20.198Z,6.67
2019-02-21T11:21:57.384Z,7.33
2019-02-21T11:24:28.868Z,8.37
2019-02-21T11:27:00.067Z,8.17
2019-02-21T11:29:31.564Z,8.60
2019-02-21T11:32:03.637Z,9.63
2019-02-21T11:34:34.981Z,9.00
2019-02-21T11:37:06.448Z,10.77
2019-02-21T11:39:37.821Z,10.03
2019-02-21T11:42:09.632Z,9.30
2019-02-21T11:44:41.134Z,8.00
2019-02-21T11:47:12.913Z,7.20
2019-02-21T11:49:44.716Z,8.50
2019-02-21T11:52:16.186Z,6.10
2019-02-21T11:54:48.060Z,7.63
2019-02-21T11:57:19.491Z,9.50
2019-02-21T11:59:50.912Z,11.07
2019-02-21T12:02:22.756Z,10.47
2019-02-21T12:04:54.163Z,5.60
2019-02-21T12:07:25.715Z,6.53
2019-02-21T12:09:57.162Z,10.77
2019-02-21T12:12:28.935Z,14.33
2019-02-21T12:15:00.482Z,8.57
2019-02-21T12:17:31.881Z,10.67
2019-02-21T12:20:03.758Z,10.10
2019-02-21T12:22:35.587Z,9.27
2019-02-21T12:25:08.859Z,7.90
2019-02-21T12:27:40.338Z,12.63
2019-02-21T12:30:14.632Z,10.47
2019-02-21T12:32:46.648Z,9.43
2019-02-21T12:35:28.814Z,3.47
2019-02-21T12:37:51.588Z,9.87
2019-02-21T12:40:23.448Z,13.07
2019-02-21T12:42:55.844Z,13.93
2019-02-21T12:45:29.857Z,10.63
2019-02-21T12:48:00.454Z,8.03
2019-02-21T12:50:31.833Z,13.40
2019-02-21T12:53:08.460Z,9.27
2019-02-21T12:55:39.873Z,9.63
2019-02-21T12:58:11.598Z,14.70
2019-02-21T13:00:43.118Z,11.83
2019-02-21T13:03:14.678Z,12.50
2019-02-21T13:05:46.386Z,14.50
2019-02-21T13:08:17.806Z,14.90
2019-02-21T13:10:49.042Z,13.40
2019-02-21T13:13:20.619Z,9.20
2019-02-21T13:15:52.616Z,13.50
2019-02-21T13:18:24.584Z,13.70
2019-02-21T13:20:56.207Z,13.30
2019-02-21T13:23:27.811Z,12.73
2019-02-21T13:25:59.175Z,13.60
2019-02-21T13:28:30.539Z,7.90
2019-02-21T13:31:02.123Z,13.60
2019-02-21T13:33:33.373Z,12.00
2019-02-21T13:36:06.040Z,9.83
2019-02-21T13:38:37.545Z,11.37
2019-02-21T13:41:09.470Z,10.90
2019-02-21T13:43:41.481Z,15.10
2019-02-21T13:46:12.911Z,8.87
2019-02-21T13:48:44.852Z,14.20
2019-02-21T13:51:17.147Z,14.63
2019-02-21T13:53:54.456Z,6.17
2019-02-21T13:56:27.583Z,6.10
2019-02-21T13:59:00.205Z,6.50
2019-02-21T14:01:33.136Z,16.73
2019-02-21T14:04:04.439Z,9.80
2019-02-21T14:06:35.707Z,9.43
2019-02-21T14:09:07.749Z,9.33
2019-02-21T14:11:45.195Z,12.57
2019-02-21T14:14:16.751Z,9.43
2019-02-21T14:16:48.204Z,7.50
2019-02-21T14:19:19.705Z,10.87
2019-02-21T14:21:51.275Z,8.67
2019-02-21T14:24:22.534Z,8.73
2019-02-21T14:26:53.851Z,8.93
2019-02-21T14:29:25.594Z,5.80
2019-02-21T14:31:56.973Z,9.83
2019-02-21T14:34:28.439Z,11.13
2019-02-21T14:37:01.209Z,9.57
2019-02-21T14:39:33.748Z,10.67
2019-02-21T14:42:05.565Z,8.23
2019-02-21T14:44:37.033Z,9.00
2019-02-21T14:47:08.785Z,10.63
2019-02-21T14:49:40.202Z,9.43
2019-02-21T14:52:17.019Z,11.03
2019-02-21T14:54:48.526Z,9.57
2019-02-21T14:57:20.236Z,9.97
2019-02-21T14:59:52.342Z,18.63
2019-02-21T15:02:23.682Z,8.50
2019-02-21T15:04:55.326Z,8.67
2019-02-21T15:07:26.868Z,7.33
2019-02-21T15:09:58.088Z,13.30
2019-02-21T15:12:30.154Z,15.50
2019-02-21T15:15:01.487Z,10.20
2019-02-21T15:17:32.729Z,10.93
2019-02-21T15:20:04.110Z,8.53
2019-02-21T15:22:35.737Z,12.57
2019-02-21T15:25:07.513Z,12.97
2019-02-21T15:27:39.087Z,10.37
2019-02-21T15:30:12.902Z,17.27
2019-02-21T15:32:45.081Z,10.97
2019-02-21T15:35:19.300Z,13.10
2019-02-21T15:37:50.306Z,10.97
2019-02-21T15:40:21.913Z,8.87
2019-02-21T15:42:58.864Z,13.17
2019-02-21T15:45:31.077Z,19.33
2019-02-21T15:48:02.411Z,18.97
2019-02-21T15:50:33.867Z,10.60
2019-02-21T15:53:05.613Z,15.03
2019-02-21T15:55:36.993Z,11.00
2019-02-21T15:58:08.309Z,18.20
2019-02-21T16:00:39.886Z,8.97
2019-02-21T16:03:11.513Z,14.83
2019-02-21T16:05:43.001Z,10.90
2019-02-21T16:08:14.635Z,13.73
2019-02-21T16:10:46.593Z,9.57
2019-02-21T16:13:23.623Z,12.10
2019-02-21T16:15:55.418Z,14.30
2019-02-21T16:18:26.954Z,11.57
2019-02-21T16:20:58.490Z,12.17
2019-02-21T16:23:30.155Z,11.17
2019-02-21T16:26:01.846Z,14.37
2019-02-21T16:28:34.412Z,16.23
2019-02-21T16:31:06.140Z,11.33
2019-02-21T16:33:37.785Z,14.37
2019-02-21T16:36:09.560Z,13.27
2019-02-21T16:38:41.237Z,7.57
2019-02-21T16:41:13.084Z,6.63
2019-02-21T16:43:44.968Z,11.50
2019-02-21T16:46:16.321Z,8.53
2019-02-21T16:48:47.813Z,4.67
2019-02-21T16:51:19.347Z,14.80
2019-02-21T16:53:51.103Z,7.53
2019-02-21T16:56:22.589Z,15.07
2019-02-21T16:58:54.060Z,13.50
2019-02-21T17:01:25.365Z,8.20
2019-02-21T17:03:56.987Z,7.87
2019-02-21T17:06:28.338Z,7.57
2019-02-21T17:08:59.919Z,15.50
2019-02-21T17:11:31.511Z,14.33
2019-02-21T17:14:03.303Z,7.63
2019-02-21T17:16:34.871Z,11.50
2019-02-21T17:19:06.507Z,13.67
2019-02-21T17:21:38.047Z,10.27
2019-02-21T17:24:09.584Z,12.40
2019-02-21T17:26:40.982Z,10.30
2019-02-21T17:29:12.817Z,13.03
2019-02-21T17:31:44.839Z,8.53
2019-02-21T17:34:16.531Z,14.47
2019-02-21T17:36:47.986Z,14.73
2019-02-21T17:39:19.347Z,11.83
2019-02-21T17:41:50.664Z,9.87
2019-02-21T17:44:22.164Z,11.53
2019-02-21T17:46:53.556Z,8.37
2019-02-21T17:49:25.076Z,12.07
2019-02-21T17:51:57.869Z,10.20
2019-02-21T17:54:29.359Z,7.77
2019-02-21T17:57:00.941Z,12.57
2019-02-21T17:59:32.522Z,13.83
2019-02-21T18:02:04.140Z,10.50
2019-02-21T18:04:35.647Z,13.33
2019-02-21T18:07:07.065Z,5.20
2019-02-21T18:09:38.418Z,10.63
2019-02-21T18:12:10.575Z,6.47
2019-02-21T18:14:42.701Z,4.73
2019-02-21T18:17:14.125Z,5.13
2019-02-21T18:19:45.765Z,5.97
2019-02-21T18:22:17.457Z,5.13
2019-02-21T18:24:49.385Z,5.80
2019-02-21T18:27:21.161Z,8.33
2019-02-21T18:29:52.707Z,11.23
2019-02-21T18:32:24.906Z,10.97
2019-02-21T18:34:56.392Z,7.83
2019-02-21T18:37:28.260Z,9.13
2019-02-21T18:40:02.744Z,9.00
2019-02-21T18:42:34.540Z,6.43
2019-02-21T18:45:07.404Z,6.83
2019-02-21T18:47:39.127Z,10.70
2019-02-21T18:50:11.563Z,4.30
2019-02-21T18:52:43.249Z,10.63
2019-02-21T18:55:15.083Z,4.23
2019-02-21T18:57:46.648Z,10.20
2019-02-21T19:00:19.629Z,8.07
2019-02-21T19:02:51.407Z,9.40
2019-02-21T19:05:22.744Z,10.13
2019-02-21T19:08:03.963Z,8.13
2019-02-21T19:10:27.580Z,3.53
2019-02-21T19:12:59.300Z,9.00
2019-02-21T19:15:30.852Z,5.17
2019-02-21T19:18:02.762Z,7.00
2019-02-21T19:20:34.268Z,7.93
2019-02-21T19:23:06.980Z,13.30
2019-02-21T19:25:39.510Z,5.50
2019-02-21T19:28:11.467Z,7.60
2019-02-21T19:30:46.898Z,10.37
2019-02-21T19:33:18.241Z,6.30
2019-02-21T19:35:49.965Z,7.83
2019-02-21T19:38:21.278Z,8.00
2019-02-21T19:40:53.131Z,5.13
2019-02-21T19:43:24.688Z,7.67
2019-02-21T19:45:56.261Z,12.60
2019-02-21T19:48:28.594Z,13.83
2019-02-21T19:50:59.866Z,9.53
2019-02-21T19:53:31.639Z,10.23
2019-02-21T19:56:03.367Z,14.57
2019-02-21T19:58:34.924Z,8.23
2019-02-21T20:01:06.685Z,8.73
2019-02-21T20:03:38.414Z,7.03
2019-02-21T20:06:10.958Z,4.70
2019-02-21T20:08:42.423Z,11.90
2019-02-21T20:11:14.662Z,7.13
2019-02-21T20:13:46.728Z,8.13
2019-02-21T20:16:18.384Z,6.87
2019-02-21T20:18:50.609Z,7.23
2019-02-21T20:21:22.362Z,7.60
2019-02-21T20:23:54.392Z,7.37
2019-02-21T20:26:26.043Z,7.87
2019-02-21T20:28:57.882Z,10.80
2019-02-21T20:31:30.041Z,5.90
2019-02-21T20:34:01.842Z,9.77
2019-02-21T20:36:33.569Z,5.63
2019-02-21T20:39:06.413Z,6.83
2019-02-21T20:41:40.649Z,5.83
2019-02-21T20:44:12.979Z,7.73
2019-02-21T20:46:44.830Z,7.27
2019-02-21T20:49:17.777Z,11.97
2019-02-21T20:51:49.697Z,12.63
2019-02-21T20:54:21.210Z,12.93
2019-02-21T20:56:52.954Z,11.80
2019-02-21T20:59:24.752Z,14.10
2019-02-21T21:01:56.870Z,11.40
2019-02-21T21:04:28.326Z,10.27
2019-02-21T21:07:00.005Z,13.70
2019-02-21T21:09:31.968Z,10.73
2019-02-21T21:12:03.468Z,7.13
2019-02-21T21:14:34.752Z,9.40
2019-02-21T21:17:06.600Z,4.30
2019-02-21T21:19:38.560Z,2.80
2019-02-21T21:22:10.524Z,6.40
2019-02-21T21:24:42.136Z,5.53
2019-02-21T21:27:13.564Z,4.10
2019-02-21T21:29:45.000Z,5.83
2019-02-21T21:32:16.984Z,7.37
2019-02-21T21:34:48.344Z,7.93
2019-02-21T21:37:19.963Z,5.20
2019-02-21T21:39:51.508Z,8.20
2019-02-21T21:42:23.097Z,4.07
2019-02-21T21:44:54.714Z,3.47
2019-02-21T21:47:27.034Z,6.77
2019-02-21T21:49:58.902Z,4.03
2019-02-21T21:52:30.442Z,12.17
2019-02-21T21:55:02.115Z,8.93
2019-02-21T21:57:34.649Z,6.67
2019-02-21T22:00:07.921Z,9.20
2019-02-21T22:02:41.114Z,8.77
2019-02-21T22:05:12.674Z,10.97
2019-02-21T22:07:44.941Z,7.47
2019-02-21T22:10:16.824Z,10.30
2019-02-21T22:12:48.812Z,12.57
2019-02-21T22:15:20.482Z,7.80
2019-02-21T22:17:52.362Z,8.30
2019-02-21T22:20:24.555Z,8.03
2019-02-21T22:23:02.386Z,5.00
2019-02-21T22:25:34.478Z,4.57
2019-02-21T22:28:06.575Z,6.43
2019-02-21T22:30:38.517Z,3.97
2019-02-21T22:33:13.038Z,8.53
2019-02-21T22:35:44.596Z,5.53
2019-02-21T22:38:16.272Z,6.13
2019-02-21T22:40:47.902Z,4.40
2019-02-21T22:43:25.103Z,6.63
2019-02-21T22:45:56.928Z,6.87
2019-02-21T22:48:28.968Z,6.37
2019-02-21T22:51:00.976Z,5.90
2019-02-21T22:53:32.881Z,5.63
2019-02-21T22:56:04.681Z,4.90
2019-02-21T22:58:44.713Z,6.10
2019-02-21T23:01:38.252Z,3.87
2019-02-21T23:04:25.495Z,7.27
2019-02-21T23:07:11.432Z,4.97
2019-02-21T23:09:43.306Z,4.80
2019-02-21T23:12:15.616Z,5.20
2019-02-21T23:14:47.620Z,2.50
2019-02-21T23:17:19.591Z,5.67
2019-02-21T23:19:51.708Z,4.77
2019-02-21T23:22:23.885Z,6.43
2019-02-21T23:24:55.876Z,2.63
2019-02-21T23:27:28.849Z,4.43
2019-02-21T23:30:01.125Z,2.13
2019-02-21T23:32:34.276Z,5.90
2019-02-21T23:35:06.791Z,4.23
2019-02-21T23:37:38.599Z,2.17
2019-02-21T23:40:10.695Z,3.23
2019-02-21T23:42:42.467Z,3.53
2019-02-21T23:45:14.484Z,4.50
2019-02-21T23:47:49.630Z,3.03
2019-02-21T23:50:20.094Z,3.43
2019-02-21T23:52:52.938Z,2.13
2019-02-21T23:55:24.520Z,4.30
2019-02-21T23:57:56.094Z,4.63
